createdAt,value
2023-01-29T00:01:14.775Z,101746.19
2023-01-29T00:03:46.764Z,101752.16
2023-01-29T00:06:19.120Z,101744.25
2023-01-29T00:08:49.199Z,101744.09
2023-01-29T00:11:20.484Z,101745.75
2023-01-29T00:13:52.941Z,101748.47
2023-01-29T00:16:23.145Z,101745.97
2023-01-29T00:18:53.043Z,101753.47
2023-01-29T00:21:25.020Z,101746.91
2023-01-29T00:23:57.042Z,101738.75
2023-01-29T00:26:27.499Z,101748.00
2023-01-29T00:29:00.613Z,101744.88
2023-01-29T00:31:30.739Z,101736.66
2023-01-29T00:34:00.935Z,101742.22
2023-01-29T00:36:33.971Z,101739.16
2023-01-29T00:39:10.964Z,101746.81
2023-01-29T00:42:05.577Z,101748.22
2023-01-29T00:44:50.491Z,101733.13
2023-01-29T00:47:33.696Z,101730.00
2023-01-29T00:50:04.865Z,101742.06
2023-01-29T00:52:36.542Z,101744.06
2023-01-29T00:55:10.227Z,101728.09
2023-01-29T00:57:41.733Z,101734.00
2023-01-29T01:00:18.821Z,101744.16
2023-01-29T01:03:01.497Z,101744.72
2023-01-29T01:05:31.523Z,101746.75
2023-01-29T01:08:01.634Z,101754.66
2023-01-29T01:10:31.980Z,101752.25
2023-01-29T01:13:04.505Z,101751.75
2023-01-29T01:15:40.610Z,101751.50
2023-01-29T01:18:10.796Z,101747.84
2023-01-29T01:20:40.705Z,101745.50
2023-01-29T01:23:10.645Z,101753.94
2023-01-29T01:25:40.510Z,101751.38
2023-01-29T01:28:14.644Z,101758.59
2023-01-29T01:30:47.112Z,101752.84
2023-01-29T01:33:17.189Z,101757.09
2023-01-29T01:35:48.360Z,101763.66
2023-01-29T01:38:18.224Z,101765.81
2023-01-29T01:40:49.399Z,101762.38
2023-01-29T01:43:19.397Z,101756.44
2023-01-29T01:45:51.877Z,101759.78
2023-01-29T01:48:27.609Z,101759.31
2023-01-29T01:51:04.303Z,101745.72
2023-01-29T01:53:40.034Z,101749.88
2023-01-29T01:56:14.816Z,101750.06
2023-01-29T01:58:51.044Z,101739.28
2023-01-29T02:01:30.746Z,101744.53
2023-01-29T02:04:19.862Z,101739.06
2023-01-29T02:07:03.540Z,101742.97
2023-01-29T02:09:39.617Z,101746.84
2023-01-29T02:12:13.611Z,101752.03
2023-01-29T02:14:45.331Z,101751.09
2023-01-29T02:17:21.762Z,101746.47
2023-01-29T02:20:05.299Z,101745.22
2023-01-29T02:22:59.356Z,101753.16
2023-01-29T02:26:01.958Z,101750.31
2023-01-29T02:28:49.115Z,101745.69
2023-01-29T02:31:31.297Z,101749.38
2023-01-29T02:34:16.302Z,101754.34
2023-01-29T02:36:53.919Z,101744.16
2023-01-29T02:39:36.480Z,101740.47
2023-01-29T02:42:18.071Z,101743.81
2023-01-29T02:44:59.569Z,101744.50
2023-01-29T02:47:38.768Z,101743.41
2023-01-29T02:50:20.495Z,101742.41
2023-01-29T02:53:02.474Z,101733.56
2023-01-29T02:55:39.519Z,101739.13
2023-01-29T02:58:16.791Z,101737.25
2023-01-29T03:00:52.128Z,101734.66
2023-01-29T03:03:27.717Z,101733.78
2023-01-29T03:06:06.377Z,101730.28
2023-01-29T03:08:45.662Z,101737.94
2023-01-29T03:11:19.266Z,101730.09
2023-01-29T03:13:55.939Z,101732.94
2023-01-29T03:16:35.858Z,101728.16
2023-01-29T03:19:12.310Z,101729.03
2023-01-29T03:21:59.227Z,101733.56
2023-01-29T03:24:53.718Z,101726.69
2023-01-29T03:27:45.046Z,101725.28
2023-01-29T03:30:32.877Z,101729.28
2023-01-29T03:33:22.036Z,101733.78
2023-01-29T03:36:00.906Z,101730.22
2023-01-29T03:38:32.526Z,101734.72
2023-01-29T03:41:12.075Z,101734.97
2023-01-29T03:43:53.962Z,101734.00
2023-01-29T03:46:31.565Z,101734.66
2023-01-29T03:49:15.133Z,101730.97
2023-01-29T03:51:59.165Z,101732.00
2023-01-29T03:54:42.198Z,101727.31
2023-01-29T03:57:23.099Z,101735.66
2023-01-29T04:00:05.294Z,101734.66
2023-01-29T04:03:00.285Z,101740.41
2023-01-29T04:05:41.122Z,101734.50
2023-01-29T04:08:25.585Z,101741.41
2023-01-29T04:11:02.004Z,101737.00
2023-01-29T04:13:36.426Z,101740.97
2023-01-29T04:16:12.548Z,101743.41
2023-01-29T04:19:00.471Z,101741.78
2023-01-29T04:21:39.026Z,101740.16
2023-01-29T04:24:11.469Z,101740.91
2023-01-29T04:26:58.864Z,101743.41
2023-01-29T04:29:43.274Z,101740.59
2023-01-29T04:32:25.911Z,101738.94
2023-01-29T04:35:09.090Z,101747.97
2023-01-29T04:37:52.714Z,101751.38
2023-01-29T04:40:29.394Z,101747.78
2023-01-29T04:43:09.638Z,101750.25
2023-01-29T04:45:52.537Z,101749.38
2023-01-29T04:48:29.084Z,101736.22
2023-01-29T04:51:09.240Z,101735.91
2023-01-29T04:53:52.891Z,101744.84
2023-01-29T04:56:32.805Z,101738.75
2023-01-29T04:59:08.020Z,101744.16
2023-01-29T05:01:40.697Z,101746.38
2023-01-29T05:04:17.256Z,101737.28
2023-01-29T05:06:49.424Z,101750.31
2023-01-29T05:09:23.160Z,101752.63
2023-01-29T05:11:53.624Z,101756.19
2023-01-29T05:14:27.709Z,101754.47
2023-01-29T05:17:01.472Z,101740.47
2023-01-29T05:19:31.589Z,101732.31
2023-01-29T05:22:03.096Z,101738.75
2023-01-29T05:24:35.565Z,101727.00
2023-01-29T05:27:18.727Z,101708.94
2023-01-29T05:29:50.077Z,101702.69
2023-01-29T05:32:20.149Z,101701.03
2023-01-29T05:34:50.017Z,101717.56
2023-01-29T05:37:19.846Z,101719.16
2023-01-29T05:39:52.311Z,101711.66
2023-01-29T05:42:22.389Z,101700.31
2023-01-29T05:44:52.688Z,101703.22
2023-01-29T05:47:23.039Z,101723.47
2023-01-29T05:49:52.924Z,101719.78
2023-01-29T05:52:22.741Z,101706.41
2023-01-29T05:54:55.194Z,101716.56
2023-01-29T05:57:24.997Z,101717.84
2023-01-29T05:59:54.842Z,101727.31
2023-01-29T06:02:25.256Z,101725.59
2023-01-29T06:04:55.150Z,101728.16
2023-01-29T06:07:24.991Z,101742.84
2023-01-29T06:09:57.429Z,101738.63
2023-01-29T06:12:27.276Z,101742.44
2023-01-29T06:14:57.214Z,101736.53
2023-01-29T06:17:27.084Z,101740.28
2023-01-29T06:19:56.956Z,101738.50
2023-01-29T06:22:26.856Z,101746.19
2023-01-29T06:24:59.330Z,101747.84
2023-01-29T06:27:29.361Z,101741.84
2023-01-29T06:29:59.236Z,101738.94
2023-01-29T06:32:30.088Z,101729.91
2023-01-29T06:34:59.933Z,101736.53
2023-01-29T06:37:29.766Z,101731.22
2023-01-29T06:40:02.172Z,101728.53
2023-01-29T06:42:32.189Z,101737.53
2023-01-29T06:45:02.050Z,101729.47
2023-01-29T06:47:31.886Z,101724.72
2023-01-29T06:50:02.054Z,101726.03
2023-01-29T06:52:31.973Z,101725.88
2023-01-29T06:55:04.911Z,101722.19
2023-01-29T06:57:34.736Z,101732.38
2023-01-29T07:00:04.667Z,101731.50
2023-01-29T07:02:34.653Z,101725.06
2023-01-29T07:05:04.520Z,101730.28
2023-01-29T07:07:34.384Z,101736.34
2023-01-29T07:10:07.662Z,101733.97
2023-01-29T07:12:37.494Z,101741.22
2023-01-29T07:15:08.649Z,101746.09
2023-01-29T07:17:38.482Z,101750.63
2023-01-29T07:20:09.820Z,101744.63
2023-01-29T07:22:39.684Z,101753.53
2023-01-29T07:25:12.790Z,101739.31
2023-01-29T07:27:42.698Z,101741.22
2023-01-29T07:30:14.298Z,101749.47
2023-01-29T07:32:44.378Z,101744.06
2023-01-29T07:35:17.806Z,101745.81
2023-01-29T07:37:47.807Z,101744.84
2023-01-29T07:40:20.820Z,101744.91
2023-01-29T07:42:50.807Z,101752.03
2023-01-29T07:45:20.910Z,101760.97
2023-01-29T07:47:55.223Z,101772.25
2023-01-29T07:50:25.592Z,101781.88
2023-01-29T07:52:57.500Z,101775.34
2023-01-29T07:55:30.388Z,101782.09
2023-01-29T07:58:01.741Z,101784.06
2023-01-29T08:00:33.021Z,101788.22
2023-01-29T08:03:07.830Z,101789.66
2023-01-29T08:05:37.705Z,101793.66
2023-01-29T08:08:08.119Z,101783.78
2023-01-29T08:10:42.877Z,101791.00
2023-01-29T08:13:12.840Z,101794.84
2023-01-29T08:15:45.887Z,101790.56
2023-01-29T08:18:16.819Z,101791.19
2023-01-29T08:20:46.699Z,101788.31
2023-01-29T08:23:19.149Z,101790.91
2023-01-29T08:25:51.717Z,101791.53
2023-01-29T08:28:21.659Z,101801.69
2023-01-29T08:30:51.531Z,101796.22
2023-01-29T08:33:29.848Z,101795.09
2023-01-29T08:36:07.612Z,101799.41
2023-01-29T08:38:38.981Z,101799.38
2023-01-29T08:41:11.925Z,101797.81
2023-01-29T08:43:42.249Z,101795.13
2023-01-29T08:46:12.485Z,101805.31
2023-01-29T08:48:42.419Z,101804.34
2023-01-29T08:51:12.589Z,101799.50
2023-01-29T08:53:42.520Z,101805.94
2023-01-29T08:56:16.395Z,101797.81
2023-01-29T08:58:46.564Z,101795.16
2023-01-29T09:01:17.734Z,101790.13
2023-01-29T09:03:47.651Z,101792.53
2023-01-29T09:06:17.985Z,101783.38
2023-01-29T09:08:48.287Z,101791.44
2023-01-29T09:11:20.702Z,101788.44
2023-01-29T09:13:50.558Z,101799.94
2023-01-29T09:16:20.453Z,101805.41
2023-01-29T09:18:50.321Z,101815.00
2023-01-29T09:21:20.259Z,101813.88
2023-01-29T09:23:50.133Z,101815.81
2023-01-29T09:26:22.756Z,101810.78
2023-01-29T09:28:52.600Z,101806.81
2023-01-29T09:31:22.602Z,101799.47
2023-01-29T09:33:52.547Z,101783.84
2023-01-29T09:36:22.445Z,101776.03
2023-01-29T09:38:52.330Z,101758.00
2023-01-29T09:41:42.001Z,101749.88
2023-01-29T09:44:21.735Z,101745.88
2023-01-29T09:46:56.833Z,101743.31
2023-01-29T09:49:32.401Z,101742.31
2023-01-29T09:52:09.323Z,101747.44
2023-01-29T09:54:52.698Z,101750.00
2023-01-29T09:57:33.448Z,101749.72
2023-01-29T10:00:03.479Z,101747.72
2023-01-29T10:02:57.921Z,101745.06
2023-01-29T10:05:51.146Z,101752.03
2023-01-29T10:08:53.253Z,101751.50
2023-01-29T10:11:40.152Z,101749.50
2023-01-29T10:14:22.921Z,101760.34
2023-01-29T10:22:09.865Z,101748.13
2023-01-29T10:25:07.539Z,101757.09
2023-01-29T10:27:59.709Z,101755.09
2023-01-29T10:34:39.579Z,101755.16
2023-01-29T10:37:24.441Z,101762.19
2023-01-29T10:40:07.753Z,101758.88
2023-01-29T10:43:03.652Z,101769.94
2023-01-29T10:45:55.914Z,101767.44
2023-01-29T10:48:53.159Z,101767.00
2023-01-29T10:51:41.545Z,101767.25
2023-01-29T10:54:36.729Z,101766.06
2023-01-29T10:57:40.486Z,101749.47
2023-01-29T11:05:04.042Z,101731.03
2023-01-29T11:19:31.890Z,101720.56
2023-01-29T11:23:01.479Z,101703.06
2023-01-29T11:29:55.753Z,101682.56
2023-01-29T11:32:37.048Z,101690.75
2023-01-29T11:35:22.402Z,101690.50
2023-01-29T11:37:55.560Z,101682.91
2023-01-29T11:40:38.995Z,101684.84
2023-01-29T11:43:23.803Z,101666.91
2023-01-29T11:45:57.366Z,101655.59
2023-01-29T11:48:36.709Z,101654.03
2023-01-29T11:51:07.011Z,101652.44
2023-01-29T11:53:47.455Z,101645.63
2023-01-29T11:56:25.745Z,101636.53
2023-01-29T11:58:58.197Z,101631.88
2023-01-29T12:01:37.061Z,101629.56
2023-01-29T12:04:20.600Z,101631.09
2023-01-29T12:06:54.682Z,101614.38
2023-01-29T12:09:30.168Z,101612.75
2023-01-29T12:12:21.380Z,101606.63
2023-01-29T12:15:19.663Z,101605.16
2023-01-29T12:18:01.372Z,101592.25
2023-01-29T12:20:40.547Z,101599.09
2023-01-29T12:23:28.261Z,101590.91
2023-01-29T12:30:34.732Z,101586.59
2023-01-29T12:33:17.469Z,101585.97
2023-01-29T12:35:54.633Z,101575.25
2023-01-29T12:38:26.795Z,101570.84
2023-01-29T12:41:02.735Z,101573.72
2023-01-29T12:43:42.811Z,101559.84
2023-01-29T12:46:25.253Z,101556.97
2023-01-29T12:49:02.166Z,101556.56
2023-01-29T12:51:39.926Z,101556.91
2023-01-29T12:54:15.801Z,101552.47
2023-01-29T12:56:49.867Z,101552.97
2023-01-29T12:59:29.802Z,101536.88
2023-01-29T13:02:05.435Z,101521.13
2023-01-29T13:04:44.207Z,101526.38
2023-01-29T13:07:20.228Z,101528.94
2023-01-29T13:09:58.678Z,101516.13
2023-01-29T13:12:29.799Z,101520.81
2023-01-29T13:15:05.599Z,101516.53
2023-01-29T13:17:42.133Z,101523.47
2023-01-29T13:20:22.407Z,101525.22
2023-01-29T13:22:55.794Z,101517.06
2023-01-29T13:25:25.655Z,101525.97
2023-01-29T13:27:56.447Z,101518.09
2023-01-29T13:30:32.395Z,101527.91
2023-01-29T13:33:15.862Z,101521.47
2023-01-29T13:35:49.669Z,101518.78
2023-01-29T13:38:29.579Z,101524.44
2023-01-29T13:41:04.547Z,101521.00
2023-01-29T13:43:40.859Z,101522.53
2023-01-29T13:46:15.113Z,101526.28
2023-01-29T13:48:47.944Z,101524.03
2023-01-29T13:51:25.672Z,101526.59
2023-01-29T13:53:59.918Z,101520.94
2023-01-29T13:56:51.945Z,101513.53
2023-01-29T13:59:27.151Z,101509.69
2023-01-29T14:02:06.009Z,101511.34
2023-01-29T14:04:35.968Z,101512.44
2023-01-29T14:07:53.590Z,101510.38
2023-01-29T14:10:26.423Z,101507.31
2023-01-29T14:12:57.733Z,101500.88
2023-01-29T14:15:33.917Z,101493.81
2023-01-29T14:18:26.950Z,101493.91
2023-01-29T14:21:07.503Z,101496.34
2023-01-29T14:23:46.819Z,101500.53
2023-01-29T14:26:31.559Z,101487.78
2023-01-29T14:29:09.515Z,101487.69
2023-01-29T14:31:44.854Z,101484.34
2023-01-29T14:34:25.042Z,101477.13
2023-01-29T14:36:59.375Z,101485.00
2023-01-29T14:39:39.591Z,101482.97
2023-01-29T14:42:26.890Z,101486.19
2023-01-29T14:45:23.960Z,101485.41
2023-01-29T14:48:20.196Z,101478.16
2023-01-29T14:50:57.548Z,101477.50
2023-01-29T14:53:47.372Z,101475.84
2023-01-29T14:56:27.847Z,101495.16
2023-01-29T14:59:07.961Z,101492.16
2023-01-29T15:01:42.473Z,101492.47
2023-01-29T15:04:23.552Z,101497.88
2023-01-29T15:07:02.509Z,101479.63
2023-01-29T15:09:42.320Z,101490.81
2023-01-29T15:12:26.942Z,101479.84
2023-01-29T15:15:10.639Z,101484.50
2023-01-29T15:17:55.064Z,101486.94
2023-01-29T15:20:31.474Z,101492.63
2023-01-29T15:23:03.337Z,101495.28
2023-01-29T15:25:39.795Z,101496.25
2023-01-29T15:28:14.312Z,101493.31
2023-01-29T15:30:45.234Z,101489.59
2023-01-29T15:33:17.833Z,101489.97
2023-01-29T15:35:51.629Z,101495.78
2023-01-29T15:38:26.789Z,101496.94
2023-01-29T15:40:59.031Z,101488.47
2023-01-29T15:43:33.848Z,101495.22
2023-01-29T15:46:08.709Z,101481.09
2023-01-29T15:48:43.336Z,101486.72
2023-01-29T15:51:20.663Z,101486.78
2023-01-29T15:53:55.621Z,101483.34
2023-01-29T15:56:32.045Z,101487.03
2023-01-29T15:59:09.850Z,101479.38
2023-01-29T16:01:39.971Z,101483.38
2023-01-29T16:04:17.779Z,101487.72
2023-01-29T16:06:50.402Z,101491.53
2023-01-29T16:09:23.839Z,101493.63
2023-01-29T16:11:56.710Z,101492.84
2023-01-29T16:14:32.679Z,101493.06
2023-01-29T16:17:14.324Z,101503.56
2023-01-29T16:19:44.210Z,101500.63
2023-01-29T16:22:14.158Z,101500.56
2023-01-29T16:24:47.185Z,101507.59
2023-01-29T16:27:17.740Z,101507.22
2023-01-29T16:29:50.796Z,101503.69
2023-01-29T16:32:22.667Z,101507.97
2023-01-29T16:34:59.642Z,101501.13
2023-01-29T16:37:33.033Z,101496.28
2023-01-29T16:40:03.577Z,101499.91
2023-01-29T16:42:36.014Z,101495.88
2023-01-29T16:45:27.733Z,101496.31
2023-01-29T16:48:29.092Z,101493.72
2023-01-29T16:51:07.154Z,101491.69
2023-01-29T16:53:38.573Z,101485.84
2023-01-29T16:56:13.920Z,101485.44
2023-01-29T16:58:43.928Z,101486.53
2023-01-29T17:01:17.457Z,101475.22
2023-01-29T17:04:01.010Z,101477.00
2023-01-29T17:06:34.093Z,101496.84
2023-01-29T17:09:05.449Z,101482.88
2023-01-29T17:11:40.240Z,101479.03
2023-01-29T17:14:11.874Z,101482.22
2023-01-29T17:16:56.092Z,101482.78
2023-01-29T17:19:30.263Z,101479.47
2023-01-29T17:22:04.791Z,101466.94
2023-01-29T17:24:34.815Z,101471.75
2023-01-29T17:27:05.196Z,101471.75
2023-01-29T17:29:36.119Z,101471.34
2023-01-29T17:32:09.188Z,101474.28
2023-01-29T17:34:40.186Z,101471.06
2023-01-29T17:37:15.970Z,101469.84
2023-01-29T17:39:47.418Z,101465.94
2023-01-29T17:42:17.855Z,101465.88
2023-01-29T17:44:47.871Z,101472.16
2023-01-29T17:47:20.515Z,101472.09
2023-01-29T17:49:51.210Z,101479.66
2023-01-29T17:52:21.257Z,101481.59
2023-01-29T17:54:51.315Z,101491.06
2023-01-29T17:57:21.306Z,101491.19
2023-01-29T17:59:51.364Z,101495.75
2023-01-29T18:02:29.511Z,101496.56
2023-01-29T18:05:00.112Z,101490.47
2023-01-29T18:07:30.412Z,101484.59
2023-01-29T18:10:00.558Z,101487.72
2023-01-29T18:12:30.616Z,101486.94
2023-01-29T18:15:00.777Z,101486.59
2023-01-29T18:17:33.704Z,101486.16
2023-01-29T18:20:04.185Z,101478.56
2023-01-29T18:22:34.225Z,101475.44
2023-01-29T18:25:04.300Z,101484.28
2023-01-29T18:27:34.332Z,101477.41
2023-01-29T18:30:04.957Z,101480.16
2023-01-29T18:32:37.600Z,101481.63
2023-01-29T18:35:08.839Z,101480.22
2023-01-29T18:37:38.851Z,101490.66
2023-01-29T18:40:10.372Z,101499.03
2023-01-29T18:42:40.329Z,101495.31
2023-01-29T18:45:11.412Z,101501.09
2023-01-29T18:47:43.987Z,101504.75
2023-01-29T18:50:14.894Z,101502.88
2023-01-29T18:52:46.248Z,101504.25
2023-01-29T18:55:16.492Z,101505.06
2023-01-29T18:58:29.179Z,101511.25
2023-01-29T19:00:37.893Z,101514.47
2023-01-29T19:03:10.521Z,101518.34
2023-01-29T19:05:40.549Z,101514.16
2023-01-29T19:08:10.485Z,101509.59
2023-01-29T19:10:40.659Z,101512.72
2023-01-29T19:13:11.283Z,101505.41
2023-01-29T19:15:48.158Z,101511.00
2023-01-29T19:18:20.732Z,101511.34
2023-01-29T19:20:50.597Z,101505.53
2023-01-29T19:23:20.578Z,101501.34
2023-01-29T19:25:50.638Z,101504.94
2023-01-29T19:28:20.465Z,101503.78
2023-01-29T19:30:50.502Z,101505.25
2023-01-29T19:33:23.037Z,101505.69
2023-01-29T19:35:52.917Z,101499.06
2023-01-29T19:38:22.835Z,101490.72
2023-01-29T19:40:53.016Z,101494.69
2023-01-29T19:43:23.107Z,101489.34
2023-01-29T19:46:01.141Z,101498.53
2023-01-29T19:48:33.709Z,101485.25
2023-01-29T19:51:08.426Z,101482.88
2023-01-29T19:53:39.273Z,101481.66
2023-01-29T19:56:11.812Z,101483.00
2023-01-29T19:58:42.466Z,101477.09
2023-01-29T20:01:18.450Z,101474.16
2023-01-29T20:03:52.310Z,101481.63
2023-01-29T20:06:27.678Z,101479.94
2023-01-29T20:09:02.631Z,101483.19
2023-01-29T20:11:35.504Z,101488.03
2023-01-29T20:14:06.001Z,101486.50
2023-01-29T20:16:37.032Z,101480.78
2023-01-29T20:19:14.636Z,101480.16
2023-01-29T20:21:54.558Z,101474.28
2023-01-29T20:24:26.611Z,101477.72
2023-01-29T20:26:56.612Z,101476.94
2023-01-29T20:29:26.804Z,101481.09
2023-01-29T20:31:57.339Z,101476.47
2023-01-29T20:34:29.924Z,101479.28
2023-01-29T20:36:59.915Z,101475.22
2023-01-29T20:39:29.888Z,101472.72
2023-01-29T20:42:00.114Z,101471.63
2023-01-29T20:44:30.229Z,101466.88
2023-01-29T20:47:02.668Z,101459.84
2023-01-29T20:49:35.232Z,101468.88
2023-01-29T20:52:06.092Z,101474.56
2023-01-29T20:54:36.135Z,101469.25
2023-01-29T20:57:06.326Z,101461.50
2023-01-29T20:59:36.202Z,101465.19
2023-01-29T21:02:06.093Z,101468.22
2023-01-29T21:04:38.577Z,101461.66
2023-01-29T21:07:08.493Z,101464.16
2023-01-29T21:09:38.445Z,101463.94
2023-01-29T21:12:08.864Z,101461.91
2023-01-29T21:14:38.775Z,101455.50
2023-01-29T21:17:08.741Z,101451.28
2023-01-29T21:19:41.286Z,101458.63
2023-01-29T21:22:11.554Z,101454.03
2023-01-29T21:24:41.491Z,101453.47
2023-01-29T21:27:11.847Z,101453.16
2023-01-29T21:29:41.712Z,101455.06
2023-01-29T21:32:11.753Z,101454.16
2023-01-29T21:34:44.185Z,101449.09
2023-01-29T21:37:14.084Z,101442.00
2023-01-29T21:39:43.949Z,101450.19
2023-01-29T21:42:26.316Z,101449.75
2023-01-29T21:44:56.294Z,101450.81
2023-01-29T21:47:26.291Z,101449.53
2023-01-29T21:49:58.744Z,101450.13
2023-01-29T21:52:28.704Z,101450.13
2023-01-29T21:54:58.654Z,101456.34
2023-01-29T21:57:28.910Z,101448.22
2023-01-29T21:59:59.494Z,101449.06
2023-01-29T22:02:32.306Z,101442.81
2023-01-29T22:05:18.051Z,101438.16
2023-01-29T22:07:50.013Z,101448.97
2023-01-29T22:10:21.768Z,101440.09
2023-01-29T22:12:51.986Z,101435.72
2023-01-29T22:15:23.753Z,101438.28
2023-01-29T22:17:54.139Z,101439.94
2023-01-29T22:20:30.275Z,101422.72
2023-01-29T22:23:02.015Z,101421.47
2023-01-29T22:25:32.338Z,101409.53
2023-01-29T22:28:02.654Z,101412.09
2023-01-29T22:30:32.604Z,101410.16
2023-01-29T22:33:02.462Z,101406.47
2023-01-29T22:35:34.941Z,101402.88
2023-01-29T22:38:05.448Z,101402.16
2023-01-29T22:40:35.361Z,101402.44
2023-01-29T22:43:05.234Z,101388.22
2023-01-29T22:45:35.217Z,101386.50
2023-01-29T22:48:07.137Z,101372.44
2023-01-29T22:50:40.381Z,101365.41
2023-01-29T22:53:11.745Z,101362.63
2023-01-29T22:55:41.625Z,101363.88
2023-01-29T22:58:11.461Z,101360.56
2023-01-29T23:00:41.326Z,101366.19
2023-01-29T23:03:11.166Z,101366.19
2023-01-29T23:05:43.867Z,101352.38
2023-01-29T23:08:13.718Z,101351.34
2023-01-29T23:10:43.730Z,101349.81
2023-01-29T23:13:13.595Z,101349.81
2023-01-29T23:15:45.702Z,101342.94
2023-01-29T23:18:15.612Z,101346.16
2023-01-29T23:20:48.102Z,101345.22
2023-01-29T23:23:17.937Z,101355.19
2023-01-29T23:29:43.171Z,101353.41
2023-01-29T23:36:54.500Z,101325.13
2023-01-29T23:39:27.977Z,101321.72
2023-01-29T23:45:25.794Z,101299.69
2023-01-29T23:48:27.917Z,101311.25
2023-01-29T23:54:40.866Z,101318.66
2023-01-29T23:57:33.861Z,101306.09
